Time;durP1;ratioP1;P1;durP2;ratioP2;P2;SDS_P1;SDS_P2;PMS_P1;PMS_P2;Temp;Humidity;BMP_temperature;BMP_pressure;BME280_temperature;BME280_humidity;BME280_pressure;Samples;Min_cycle;Max_cycle;Signal;HPM_P1;HPM_P2
2023/03/18 00:01:36;;;;;;;17.87;7.20;;;9.30;99.90;;;;;;5071453;28;20477;-50
2023/03/18 00:04:03;;;;;;;9.87;7.10;;;9.30;99.90;;;;;;5069242;28;20461;-51
2023/03/18 00:06:31;;;;;;;8.40;6.90;;;9.40;99.90;;;;;;5067745;28;20465;-50
2023/03/18 00:08:58;;;;;;;11.43;6.47;;;9.30;99.90;;;;;;5069466;28;20824;-50
2023/03/18 00:11:26;;;;;;;11.17;7.33;;;9.30;99.90;;;;;;5068947;28;21329;-50
2023/03/18 00:13:53;;;;;;;10.03;7.07;;;9.30;99.90;;;;;;5065937;28;20462;-50
2023/03/18 00:16:20;;;;;;;10.27;6.77;;;9.30;99.90;;;;;;5066157;28;20461;-50
2023/03/18 00:18:46;;;;;;;13.17;7.67;;;9.30;99.90;;;;;;5070271;28;20489;-50
2023/03/18 00:21:13;;;;;;;9.13;6.80;;;9.30;99.90;;;;;;5068200;28;20484;-50
2023/03/18 00:23:41;;;;;;;14.83;7.90;;;9.20;99.90;;;;;;5065354;28;20470;-50
2023/03/18 00:26:08;;;;;;;9.13;7.50;;;9.30;99.90;;;;;;5066275;28;20490;-50
2023/03/18 00:28:36;;;;;;;10.13;7.07;;;9.20;99.90;;;;;;5063548;28;20956;-50
2023/03/18 00:31:07;;;;;;;11.33;7.00;;;9.20;99.90;;;;;;5066427;28;20478;-49
2023/03/18 00:33:34;;;;;;;10.57;6.80;;;9.10;99.90;;;;;;5069714;28;20446;-49
2023/03/18 00:36:00;;;;;;;8.03;6.23;;;9.10;99.90;;;;;;5062086;28;20909;-50
2023/03/18 00:38:28;;;;;;;10.77;6.87;;;9.10;99.90;;;;;;5067529;28;20523;-49
2023/03/18 00:41:09;;;;;;;8.70;6.67;;;9.10;99.90;;;;;;5064976;28;20472;-50
2023/03/18 00:43:44;;;;;;;9.73;7.10;;;9.10;99.90;;;;;;5069168;28;20465;-50
2023/03/18 00:46:12;;;;;;;9.93;6.63;;;9.00;99.90;;;;;;5067963;28;20464;-51
2023/03/18 00:48:38;;;;;;;8.03;6.37;;;9.00;99.90;;;;;;5068434;28;20461;-50
2023/03/18 00:51:05;;;;;;;8.13;7.20;;;9.00;99.90;;;;;;5062024;28;21079;-51
2023/03/18 00:53:32;;;;;;;8.00;6.40;;;9.00;99.90;;;;;;5065142;28;20465;-50
2023/03/18 00:56:00;;;;;;;13.47;6.93;;;8.90;99.90;;;;;;5064833;28;20521;-51
2023/03/18 00:58:26;;;;;;;13.60;6.83;;;8.90;99.90;;;;;;5064908;28;20488;-50
2023/03/18 01:00:53;;;;;;;12.53;7.23;;;8.90;99.90;;;;;;5066112;28;20465;-51
2023/03/18 01:03:24;;;;;;;10.73;7.13;;;8.90;99.90;;;;;;5069517;28;20484;-50
2023/03/18 01:05:50;;;;;;;7.63;6.53;;;8.90;99.90;;;;;;5069268;28;20504;-51
2023/03/18 01:08:18;;;;;;;11.10;6.53;;;8.90;99.90;;;;;;5066779;28;20453;-51
2023/03/18 01:10:44;;;;;;;10.17;6.60;;;8.80;99.90;;;;;;5067435;28;20473;-51
2023/03/18 01:13:13;;;;;;;11.30;7.10;;;8.80;99.90;;;;;;5070126;28;20531;-50
2023/03/18 01:15:40;;;;;;;8.90;6.97;;;8.80;99.90;;;;;;5067640;28;20472;-51
2023/03/18 01:18:07;;;;;;;11.43;7.60;;;8.80;99.90;;;;;;5068703;28;20492;-51
2023/03/18 01:20:34;;;;;;;7.33;6.23;;;8.80;99.90;;;;;;5064825;28;20993;-49
2023/03/18 01:23:01;;;;;;;10.33;6.13;;;8.70;99.90;;;;;;5074042;28;20485;-50
2023/03/18 01:25:27;;;;;;;9.20;6.33;;;8.70;99.90;;;;;;5066607;28;20458;-50
2023/03/18 01:27:54;;;;;;;10.70;6.10;;;8.70;99.90;;;;;;5067393;28;20515;-50
2023/03/18 01:30:23;;;;;;;9.00;5.97;;;8.60;99.90;;;;;;5073453;28;20465;-50
2023/03/18 01:32:50;;;;;;;10.10;6.30;;;8.60;99.90;;;;;;5075147;28;21051;-50
2023/03/18 01:35:17;;;;;;;9.60;6.83;;;8.60;99.90;;;;;;5067226;28;20532;-51
2023/03/18 01:37:45;;;;;;;11.40;6.47;;;8.60;99.90;;;;;;5073996;28;20457;-50
2023/03/18 01:40:14;;;;;;;8.40;6.93;;;8.60;99.90;;;;;;5066536;28;22250;-51
2023/03/18 01:42:40;;;;;;;8.77;6.57;;;8.60;99.90;;;;;;5063314;28;20554;-50
2023/03/18 01:45:15;;;;;;;9.47;6.50;;;8.60;99.90;;;;;;5072299;28;20970;-51
2023/03/18 01:47:43;;;;;;;10.13;6.63;;;8.60;99.90;;;;;;5073378;28;20464;-51
2023/03/18 01:50:11;;;;;;;9.87;6.93;;;8.60;99.90;;;;;;5074051;28;20463;-50
2023/03/18 01:52:38;;;;;;;10.23;6.70;;;8.50;99.90;;;;;;5069793;28;20493;-50
2023/03/18 01:55:09;;;;;;;8.37;6.60;;;8.50;99.90;;;;;;5067813;28;20512;-50
2023/03/18 01:57:36;;;;;;;13.90;7.20;;;8.50;99.90;;;;;;5063995;28;20461;-51
2023/03/18 02:00:06;;;;;;;9.77;6.53;;;8.50;99.90;;;;;;5071081;28;20581;-50
2023/03/18 02:02:33;;;;;;;9.63;6.60;;;8.50;99.90;;;;;;5073733;28;20481;-50
2023/03/18 02:05:05;;;;;;;8.90;6.67;;;8.50;99.90;;;;;;5072472;28;20472;-50
2023/03/18 02:07:35;;;;;;;10.30;6.23;;;8.50;99.90;;;;;;5070003;28;20482;-50
2023/03/18 02:10:04;;;;;;;9.50;7.23;;;8.50;99.90;;;;;;5070464;28;20805;-50
2023/03/18 02:12:34;;;;;;;10.13;7.00;;;8.50;99.90;;;;;;5066315;28;20500;-51
2023/03/18 02:15:02;;;;;;;14.40;6.20;;;8.50;99.90;;;;;;5072411;28;20519;-50
2023/03/18 02:17:31;;;;;;;14.40;5.80;;;8.40;99.90;;;;;;5067008;28;20516;-49
2023/03/18 02:20:09;;;;;;;7.10;5.90;;;8.40;99.90;;;;;;5066710;28;20584;-51
2023/03/18 02:22:40;;;;;;;5.33;4.83;;;8.40;99.90;;;;;;5074116;28;20986;-50
2023/03/18 02:25:25;;;;;;;8.33;6.43;;;8.40;99.90;;;;;;5067281;28;20465;-49
2023/03/18 02:27:59;;;;;;;8.80;5.97;;;8.40;99.90;;;;;;5062301;28;20983;-50
2023/03/18 02:30:30;;;;;;;7.70;5.90;;;8.40;99.90;;;;;;5065628;28;20552;-49
2023/03/18 02:32:58;;;;;;;9.67;7.20;;;8.40;99.90;;;;;;5067367;28;20548;-50
2023/03/18 02:35:26;;;;;;;8.67;6.23;;;8.40;99.90;;;;;;5065308;28;20473;-49
2023/03/18 02:37:53;;;;;;;14.30;6.27;;;8.40;99.90;;;;;;5067996;28;20465;-50
2023/03/18 02:40:23;;;;;;;7.90;6.10;;;8.40;99.90;;;;;;5070008;28;20567;-50
2023/03/18 02:42:51;;;;;;;11.27;5.83;;;8.40;99.90;;;;;;5067295;28;20539;-50
2023/03/18 02:45:33;;;;;;;9.03;5.70;;;8.30;99.90;;;;;;5070642;28;20461;-49
2023/03/18 02:48:04;;;;;;;10.20;7.30;;;8.40;99.90;;;;;;5056932;28;20458;-50
2023/03/18 02:50:30;;;;;;;8.77;6.33;;;8.40;99.90;;;;;;5072558;28;20461;-52
2023/03/18 02:52:58;;;;;;;7.87;5.70;;;8.30;99.90;;;;;;5065890;22;20865;-55
2023/03/18 02:55:25;;;;;;;9.37;6.23;;;8.30;99.90;;;;;;5042037;28;20438;-56
2023/03/18 02:57:52;;;;;;;8.37;6.20;;;8.30;99.90;;;;;;5049584;28;20465;-56
2023/03/18 03:00:20;;;;;;;8.83;6.13;;;8.30;99.90;;;;;;5045521;28;20482;-56
2023/03/18 03:02:47;;;;;;;7.60;5.70;;;8.30;99.90;;;;;;5034415;28;20999;-56
2023/03/18 03:05:14;;;;;;;10.93;6.20;;;8.30;99.90;;;;;;5017990;28;20491;-56
2023/03/18 03:07:41;;;;;;;7.10;5.80;;;8.30;99.90;;;;;;5023000;28;20948;-57
2023/03/18 03:10:09;;;;;;;9.70;6.13;;;8.30;99.90;;;;;;5031302;28;20549;-55
2023/03/18 03:12:36;;;;;;;9.93;6.17;;;8.30;99.90;;;;;;5023160;28;20475;-55
2023/03/18 03:15:04;;;;;;;13.40;5.90;;;8.30;99.90;;;;;;5029364;28;20470;-54
2023/03/18 03:17:32;;;;;;;7.63;6.70;;;8.40;99.90;;;;;;5021532;28;20455;-55
2023/03/18 03:19:59;;;;;;;8.20;5.90;;;8.40;99.90;;;;;;5026669;28;20506;-56
2023/03/18 03:22:27;;;;;;;8.30;5.90;;;8.40;99.90;;;;;;5025157;28;20564;-57
2023/03/18 03:24:53;;;;;;;11.73;6.80;;;8.40;99.90;;;;;;5032329;28;20559;-54
2023/03/18 03:27:20;;;;;;;9.23;6.27;;;8.40;99.90;;;;;;5018391;28;20966;-55
2023/03/18 03:29:47;;;;;;;9.57;6.47;;;8.50;99.90;;;;;;5025114;28;20459;-55
2023/03/18 03:32:14;;;;;;;7.57;5.93;;;8.40;99.90;;;;;;5026288;28;20840;-55
2023/03/18 03:34:42;;;;;;;6.70;5.70;;;8.40;99.90;;;;;;5023187;28;20459;-56
2023/03/18 03:37:09;;;;;;;8.17;6.83;;;8.50;99.90;;;;;;5031692;28;20986;-56
2023/03/18 03:39:35;;;;;;;12.47;6.30;;;8.50;99.90;;;;;;5025047;28;21080;-55
2023/03/18 03:42:02;;;;;;;12.53;6.47;;;8.50;99.90;;;;;;5017160;28;20495;-55
2023/03/18 03:44:29;;;;;;;14.30;6.97;;;8.40;99.90;;;;;;5018392;28;20464;-55
2023/03/18 03:46:55;;;;;;;11.10;7.07;;;8.40;99.90;;;;;;5029833;28;20918;-54
2023/03/18 03:49:22;;;;;;;9.90;6.73;;;8.40;99.90;;;;;;5027199;28;20952;-56
2023/03/18 03:51:50;;;;;;;9.10;6.10;;;8.40;99.90;;;;;;5030508;28;20495;-55
2023/03/18 03:54:16;;;;;;;11.50;6.13;;;8.40;99.90;;;;;;5019677;28;20459;-54
2023/03/18 03:56:43;;;;;;;8.77;6.37;;;8.30;99.90;;;;;;5023295;28;20459;-55
2023/03/18 03:59:10;;;;;;;8.40;6.50;;;8.30;99.90;;;;;;5030082;28;20483;-55
2023/03/18 04:01:36;;;;;;;12.03;6.97;;;8.30;99.90;;;;;;5026622;28;20570;-55
2023/03/18 04:04:04;;;;;;;12.83;7.00;;;8.30;99.90;;;;;;5029653;28;20468;-55
2023/03/18 04:06:31;;;;;;;8.73;6.93;;;8.20;99.90;;;;;;5026417;28;20460;-56
2023/03/18 04:08:59;;;;;;;8.33;5.60;;;8.10;99.90;;;;;;5024727;28;20574;-56
2023/03/18 04:11:25;;;;;;;10.40;6.47;;;8.10;99.90;;;;;;5023103;28;20510;-57
2023/03/18 04:13:52;;;;;;;9.10;6.43;;;8.10;99.90;;;;;;5020765;28;21039;-57
2023/03/18 04:16:19;;;;;;;7.30;5.67;;;8.10;99.90;;;;;;5023372;28;20474;-55
2023/03/18 04:18:45;;;;;;;12.37;5.60;;;8.00;99.90;;;;;;5019891;28;20871;-55
2023/03/18 04:21:12;;;;;;;8.10;6.13;;;8.00;99.90;;;;;;5025910;28;20474;-55
2023/03/18 04:23:39;;;;;;;11.00;5.83;;;8.00;99.90;;;;;;5019283;28;20552;-55
2023/03/18 04:26:07;;;;;;;10.50;6.77;;;8.00;99.90;;;;;;5025120;28;20917;-55
2023/03/18 04:28:34;;;;;;;7.87;5.87;;;7.90;99.90;;;;;;5026260;28;20467;-56
2023/03/18 04:31:00;;;;;;;7.80;5.37;;;7.90;99.90;;;;;;5016000;28;20466;-56
2023/03/18 04:33:27;;;;;;;8.03;5.47;;;7.90;99.90;;;;;;5028403;28;20510;-54
2023/03/18 04:35:54;;;;;;;11.60;6.60;;;7.90;99.90;;;;;;5028902;28;20463;-55
2023/03/18 04:38:21;;;;;;;13.20;6.47;;;7.90;99.90;;;;;;5028451;28;21018;-55
2023/03/18 04:40:47;;;;;;;8.73;6.50;;;7.90;99.90;;;;;;5018043;28;20553;-56
2023/03/18 04:43:15;;;;;;;7.97;5.97;;;7.80;99.90;;;;;;5018174;28;21020;-55
2023/03/18 04:45:42;;;;;;;10.77;5.93;;;7.70;99.90;;;;;;5016707;28;20472;-56
2023/03/18 04:48:09;;;;;;;8.70;5.77;;;7.70;99.90;;;;;;5019349;28;20470;-55
2023/03/18 04:50:35;;;;;;;11.73;6.40;;;7.70;99.90;;;;;;5026395;28;20477;-55
2023/03/18 04:53:02;;;;;;;9.80;6.57;;;7.70;99.90;;;;;;5019890;28;20495;-57
2023/03/18 04:55:29;;;;;;;10.03;6.87;;;7.60;99.90;;;;;;5021710;28;20968;-56
2023/03/18 04:57:55;;;;;;;11.13;6.47;;;7.60;99.90;;;;;;5022317;28;20464;-56
2023/03/18 05:00:24;;;;;;;8.63;5.67;;;7.60;99.90;;;;;;5028497;28;20541;-55
2023/03/18 05:02:50;;;;;;;12.93;5.80;;;7.60;99.90;;;;;;5027933;28;20482;-54
2023/03/18 05:05:17;;;;;;;8.70;6.73;;;7.60;99.90;;;;;;5022961;28;20464;-55
2023/03/18 05:07:43;;;;;;;12.87;6.47;;;7.50;99.90;;;;;;5018812;28;20493;-55
2023/03/18 05:10:11;;;;;;;10.53;6.60;;;7.50;99.90;;;;;;5025280;28;20523;-55
2023/03/18 05:12:38;;;;;;;7.20;5.67;;;7.50;99.90;;;;;;5023381;28;20478;-55
2023/03/18 05:15:05;;;;;;;10.60;6.50;;;7.40;99.90;;;;;;5016323;28;20464;-55
2023/03/18 05:17:34;;;;;;;11.03;6.37;;;7.30;99.90;;;;;;5024703;28;20464;-55
2023/03/18 05:20:00;;;;;;;9.07;5.80;;;7.30;99.90;;;;;;5032380;28;20483;-55
2023/03/18 05:22:27;;;;;;;6.87;6.13;;;7.30;99.90;;;;;;5024483;28;20483;-54
2023/03/18 05:24:54;;;;;;;7.53;6.23;;;7.20;99.90;;;;;;5019624;28;20505;-56
2023/03/18 05:27:21;;;;;;;8.30;5.77;;;7.10;99.90;;;;;;5031425;28;20485;-54
2023/03/18 05:29:48;;;;;;;6.90;5.43;;;7.10;99.90;;;;;;5018752;28;20809;-55
2023/03/18 05:32:15;;;;;;;11.33;5.70;;;7.00;99.90;;;;;;5022364;28;20483;-54
2023/03/18 05:34:43;;;;;;;14.33;7.27;;;7.00;99.90;;;;;;5018942;28;20458;-55
2023/03/18 05:37:12;;;;;;;10.63;7.00;;;7.00;99.90;;;;;;5023940;28;20550;-55
2023/03/18 05:39:40;;;;;;;12.97;7.50;;;7.00;99.90;;;;;;5023478;28;20553;-55
2023/03/18 05:42:07;;;;;;;8.47;7.50;;;6.90;99.90;;;;;;5028426;28;20506;-56
2023/03/18 05:44:34;;;;;;;11.77;5.70;;;6.90;99.90;;;;;;5030510;28;20459;-55
2023/03/18 05:47:01;;;;;;;9.13;6.10;;;6.90;99.90;;;;;;5024808;28;20458;-55
2023/03/18 05:49:28;;;;;;;6.90;5.73;;;6.90;99.90;;;;;;5020733;28;20513;-55
2023/03/18 05:51:56;;;;;;;7.57;5.68;;;6.90;99.90;;;;;;5023898;28;20457;-54
2023/03/18 05:54:23;;;;;;;6.50;5.70;;;6.90;99.90;;;;;;5026516;28;20730;-55
2023/03/18 05:56:51;;;;;;;7.30;6.13;;;6.80;99.90;;;;;;5028998;28;20459;-56
2023/03/18 05:59:18;;;;;;;7.30;5.77;;;6.80;99.90;;;;;;5025316;28;20467;-56
2023/03/18 06:01:45;;;;;;;9.70;6.33;;;6.90;99.90;;;;;;5021027;28;20480;-55
2023/03/18 06:04:12;;;;;;;6.50;5.70;;;6.90;99.90;;;;;;5022180;28;20463;-54
2023/03/18 06:06:39;;;;;;;5.97;5.37;;;7.00;99.90;;;;;;5022358;28;20474;-55
2023/03/18 06:09:08;;;;;;;12.60;7.43;;;7.00;99.90;;;;;;5025588;28;20900;-55
2023/03/18 06:11:35;;;;;;;13.47;7.03;;;7.00;99.90;;;;;;5025553;28;20483;-55
2023/03/18 06:14:03;;;;;;;11.30;6.50;;;7.00;99.90;;;;;;5029339;28;20463;-55
2023/03/18 06:16:30;;;;;;;12.63;6.50;;;7.10;99.90;;;;;;5025782;28;20458;-56
2023/03/18 06:18:57;;;;;;;9.00;6.97;;;7.10;99.90;;;;;;5029114;28;20471;-54
2023/03/18 06:21:24;;;;;;;11.60;6.53;;;7.20;99.90;;;;;;5031354;28;20897;-52
2023/03/18 06:23:51;;;;;;;6.93;6.07;;;7.40;99.90;;;;;;5019589;28;20956;-53
2023/03/18 06:26:19;;;;;;;14.90;5.60;;;7.40;99.90;;;;;;5015352;28;20448;-53
2023/03/18 06:28:46;;;;;;;12.50;5.53;;;7.40;99.90;;;;;;5024509;28;20509;-53
2023/03/18 06:31:13;;;;;;;8.90;6.30;;;7.40;99.90;;;;;;5028292;28;20455;-53
2023/03/18 06:33:40;;;;;;;14.20;6.07;;;7.40;99.90;;;;;;5029058;28;21075;-53
2023/03/18 06:36:09;;;;;;;7.47;6.23;;;7.50;99.90;;;;;;5030046;28;20886;-52
2023/03/18 06:38:36;;;;;;;8.03;6.00;;;7.50;99.90;;;;;;5023350;28;20448;-52
2023/03/18 06:41:03;;;;;;;7.10;6.40;;;7.60;99.90;;;;;;5015805;28;20510;-51
2023/03/18 06:43:32;;;;;;;10.80;7.00;;;7.70;99.90;;;;;;5015667;28;21054;-53
2023/03/18 06:45:58;;;;;;;10.53;6.40;;;7.70;99.90;;;;;;5023391;28;20526;-52
2023/03/18 06:48:25;;;;;;;9.70;6.43;;;7.80;99.90;;;;;;5023808;28;20887;-52
2023/03/18 06:50:53;;;;;;;15.13;8.47;;;7.90;99.90;;;;;;5026689;28;20494;-51
2023/03/18 06:53:19;;;;;;;13.27;8.07;;;8.00;99.90;;;;;;5022588;28;20483;-52
2023/03/18 06:55:47;;;;;;;12.23;9.90;;;8.10;99.90;;;;;;5024899;28;20459;-54
2023/03/18 06:58:14;;;;;;;16.33;7.53;;;8.20;99.90;;;;;;5018314;28;20540;-51
2023/03/18 07:00:46;;;;;;;8.27;5.70;;;8.30;99.90;;;;;;5014917;28;20487;-52
2023/03/18 07:03:14;;;;;;;7.67;6.87;;;8.40;99.90;;;;;;5027549;28;20491;-51
2023/03/18 07:05:41;;;;;;;12.63;6.57;;;8.60;99.90;;;;;;5022233;28;20469;-52
2023/03/18 07:08:09;;;;;;;7.90;5.73;;;8.70;99.90;;;;;;5033135;28;20506;-52
2023/03/18 07:10:35;;;;;;;15.33;6.53;;;8.70;99.90;;;;;;5026006;28;20452;-52
2023/03/18 07:13:02;;;;;;;30.83;7.00;;;8.80;99.90;;;;;;5024634;28;20491;-52
2023/03/18 07:15:29;;;;;;;7.27;6.50;;;8.90;99.90;;;;;;5024684;28;21238;-52
2023/03/18 07:17:59;;;;;;;10.60;6.23;;;9.10;99.90;;;;;;5031239;28;20468;-55
2023/03/18 07:20:26;;;;;;;8.50;6.13;;;9.20;99.90;;;;;;5025248;28;20476;-52
2023/03/18 07:22:52;;;;;;;10.77;6.60;;;9.30;99.90;;;;;;5020482;28;20494;-52
2023/03/18 07:25:19;;;;;;;11.73;5.90;;;9.50;99.90;;;;;;5020218;28;20475;-52
2023/03/18 07:27:46;;;;;;;8.73;6.13;;;9.50;99.90;;;;;;5027662;28;20466;-54
2023/03/18 07:30:14;;;;;;;13.03;6.77;;;9.60;99.90;;;;;;5022367;28;20463;-53
2023/03/18 07:32:41;;;;;;;10.40;6.17;;;9.80;99.90;;;;;;5022258;28;20562;-52
2023/03/18 07:35:12;;;;;;;7.23;5.67;;;9.70;99.90;;;;;;5018126;28;20471;-53
2023/03/18 07:37:39;;;;;;;7.90;6.00;;;9.80;99.90;;;;;;5025554;28;20482;-51
2023/03/18 07:40:07;;;;;;;7.20;5.53;;;9.80;99.90;;;;;;5022396;28;20529;-52
2023/03/18 07:42:33;;;;;;;10.20;7.00;;;9.90;99.90;;;;;;5027108;28;20479;-52
2023/03/18 07:45:00;;;;;;;9.50;5.37;;;10.10;99.90;;;;;;5025574;28;20521;-54
2023/03/18 07:47:27;;;;;;;7.43;6.40;;;10.20;99.90;;;;;;5025785;28;20964;-51
2023/03/18 07:49:54;;;;;;;10.03;6.20;;;10.20;99.90;;;;;;5021423;28;20917;-53
2023/03/18 07:52:22;;;;;;;7.47;6.30;;;10.20;99.90;;;;;;5027834;28;20491;-52
2023/03/18 07:54:49;;;;;;;9.60;6.13;;;10.40;99.90;;;;;;5020625;28;20499;-52
2023/03/18 07:57:16;;;;;;;11.17;6.17;;;10.60;99.90;;;;;;5020493;28;20490;-52
2023/03/18 07:59:42;;;;;;;9.20;5.97;;;10.90;99.90;;;;;;5028086;28;20934;-52
2023/03/18 08:02:11;;;;;;;8.70;5.70;;;11.10;99.90;;;;;;5028706;28;20499;-52
2023/03/18 08:04:38;;;;;;;6.67;5.90;;;11.50;99.90;;;;;;5025086;28;20995;-52
2023/03/18 08:07:04;;;;;;;8.97;5.87;;;11.50;99.90;;;;;;5026229;28;20532;-52
2023/03/18 08:09:32;;;;;;;10.10;6.27;;;11.40;99.90;;;;;;5026848;28;20463;-52
2023/03/18 08:12:00;;;;;;;12.53;6.30;;;11.30;99.90;;;;;;5025586;28;20487;-51
2023/03/18 08:14:26;;;;;;;11.60;7.17;;;11.30;99.90;;;;;;5026959;28;20463;-52
2023/03/18 08:16:53;;;;;;;14.80;6.03;;;11.30;99.90;;;;;;5019214;28;20895;-52
2023/03/18 08:19:20;;;;;;;11.50;6.97;;;11.30;99.90;;;;;;5028296;28;20458;-52
2023/03/18 08:21:47;;;;;;;9.27;7.23;;;11.40;99.90;;;;;;5022319;28;20570;-54
2023/03/18 08:24:13;;;;;;;12.20;7.80;;;11.70;99.90;;;;;;5029231;28;20464;-52
2023/03/18 08:26:41;;;;;;;13.53;7.80;;;11.80;99.90;;;;;;5016925;28;20471;-53
2023/03/18 08:29:08;;;;;;;7.20;5.60;;;11.90;99.90;;;;;;5020880;28;20436;-52
2023/03/18 08:31:34;;;;;;;10.80;7.13;;;12.20;99.90;;;;;;5029621;28;20459;-52
2023/03/18 08:34:01;;;;;;;10.10;6.27;;;12.20;99.90;;;;;;5030352;28;20447;-51
2023/03/18 08:36:28;;;;;;;10.27;6.27;;;12.50;99.90;;;;;;5029905;28;20443;-52
2023/03/18 08:38:55;;;;;;;10.07;6.27;;;12.60;99.90;;;;;;5024285;28;20459;-52
2023/03/18 08:41:24;;;;;;;9.17;6.00;;;12.70;99.90;;;;;;5028344;28;20544;-52
2023/03/18 08:43:54;;;;;;;17.10;5.80;;;12.60;99.90;;;;;;5025393;28;21051;-52
2023/03/18 08:46:20;;;;;;;25.43;6.47;;;12.70;99.90;;;;;;5018624;28;20467;-51
2023/03/18 08:48:47;;;;;;;6.57;5.23;;;12.50;99.90;;;;;;5025740;28;20960;-52
2023/03/18 08:51:15;;;;;;;10.87;4.97;;;12.50;99.90;;;;;;5021672;28;20456;-51
2023/03/18 08:53:42;;;;;;;10.13;5.70;;;12.50;99.90;;;;;;5067415;23;20527;-53
2023/03/18 08:56:09;;;;;;;10.03;5.20;;;12.90;99.90;;;;;;5038426;28;20462;-53
2023/03/18 08:58:35;;;;;;;6.13;5.33;;;13.10;99.90;;;;;;5044072;28;20526;-52
2023/03/18 09:01:04;;;;;;;6.77;5.17;;;13.30;99.90;;;;;;5045082;28;20860;-52
2023/03/18 09:03:32;;;;;;;11.77;6.60;;;13.90;99.90;;;;;;5031604;28;20479;-51
2023/03/18 09:05:59;;;;;;;7.20;5.60;;;14.40;99.90;;;;;;5046497;28;21025;-53
2023/03/18 09:08:27;;;;;;;7.63;5.87;;;14.70;99.90;;;;;;5043763;28;20466;-52
2023/03/18 09:10:54;;;;;;;8.23;5.93;;;15.50;99.90;;;;;;5045836;28;20469;-52
2023/03/18 09:13:21;;;;;;;12.17;6.57;;;15.50;99.90;;;;;;5046081;28;20492;-52
2023/03/18 09:15:48;;;;;;;9.53;6.50;;;15.20;99.90;;;;;;5040131;28;20462;-52
2023/03/18 09:18:17;;;;;;;12.73;7.10;;;15.60;99.90;;;;;;5035159;28;20447;-51
2023/03/18 09:20:44;;;;;;;18.10;6.83;;;16.50;99.90;;;;;;5039029;28;20531;-51
2023/03/18 09:23:12;;;;;;;10.30;5.90;;;17.40;99.90;;;;;;5051197;28;20470;-51
2023/03/18 09:25:41;;;;;;;9.27;6.07;;;17.30;99.90;;;;;;5049763;28;20540;-50
2023/03/18 09:28:08;;;;;;;11.23;6.37;;;17.90;99.90;;;;;;5040317;28;20461;-50
2023/03/18 09:30:34;;;;;;;11.53;6.60;;;17.60;99.90;;;;;;5043110;28;20466;-50
2023/03/18 09:33:01;;;;;;;6.73;5.10;;;16.60;99.90;;;;;;5042396;28;20454;-50
2023/03/18 09:35:29;;;;;;;13.83;5.97;;;17.20;99.90;;;;;;5042635;28;20510;-52
2023/03/18 09:37:56;;;;;;;12.07;6.33;;;16.60;99.90;;;;;;5047139;28;21104;-50
2023/03/18 09:40:26;;;;;;;8.67;5.67;;;16.60;99.90;;;;;;5047943;28;20976;-52
2023/03/18 09:43:04;;;;;;;8.57;5.57;;;16.60;99.90;;;;;;5041735;28;20547;-51
2023/03/18 09:45:37;;;;;;;9.40;5.70;;;16.60;99.90;;;;;;5047768;28;20507;-50
2023/03/18 09:48:20;;;;;;;11.00;6.23;;;16.60;99.90;;;;;;5048122;28;20477;-51
2023/03/18 09:50:58;;;;;;;7.93;5.47;;;16.90;99.90;;;;;;5048779;28;20509;-50
2023/03/18 09:53:40;;;;;;;8.17;5.73;;;17.00;99.90;;;;;;5045311;28;20483;-50
2023/03/18 09:56:11;;;;;;;10.27;5.57;;;16.70;99.90;;;;;;5040586;28;20803;-50
2023/03/18 09:58:48;;;;;;;7.40;5.50;;;17.20;99.90;;;;;;5040010;28;20881;-51
2023/03/18 10:01:16;;;;;;;10.83;5.60;;;16.30;99.90;;;;;;5040160;28;20564;-51
2023/03/18 10:03:47;;;;;;;9.80;5.30;;;16.00;99.90;;;;;;5039681;28;20545;-52
2023/03/18 10:06:18;;;;;;;23.87;12.37;;;16.10;99.90;;;;;;5039536;28;20950;-51
2023/03/18 10:08:54;;;;;;;57.83;34.83;;;16.10;99.90;;;;;;5046073;28;20466;-51
2023/03/18 10:11:26;;;;;;;21.00;13.67;;;16.60;99.90;;;;;;5044195;28;20452;-57
2023/03/18 10:14:01;;;;;;;15.43;6.70;;;17.30;99.90;;;;;;5048005;28;20494;-56
2023/03/18 10:16:31;;;;;;;8.50;7.10;;;17.60;99.90;;;;;;5046825;28;20463;-56
2023/03/18 10:18:59;;;;;;;8.63;5.70;;;18.10;99.90;;;;;;5043129;28;21277;-57
2023/03/18 10:21:40;;;;;;;7.77;5.23;;;18.30;99.90;;;;;;5045441;28;20977;-51
2023/03/18 10:24:19;;;;;;;7.80;5.27;;;17.80;99.90;;;;;;5047043;28;21061;-50
2023/03/18 10:26:49;;;;;;;10.40;6.00;;;17.90;99.90;;;;;;5047626;28;20467;-53
2023/03/18 10:29:31;;;;;;;9.17;5.93;;;17.90;99.90;;;;;;5041552;28;20526;-53
2023/03/18 10:32:08;;;;;;;9.37;6.47;;;18.50;99.90;;;;;;5048142;28;20460;-53
2023/03/18 10:34:41;;;;;;;8.70;5.80;;;18.90;99.90;;;;;;5046870;28;20631;-52
2023/03/18 10:37:23;;;;;;;16.13;5.20;;;19.00;99.90;;;;;;5044315;28;20547;-53
2023/03/18 10:39:51;;;;;;;12.83;5.63;;;19.20;99.90;;;;;;5043032;28;20557;-54
2023/03/18 10:42:20;;;;;;;7.80;4.80;;;18.80;99.90;;;;;;5051040;28;20485;-53
2023/03/18 10:44:48;;;;;;;9.30;4.80;;;19.00;99.90;;;;;;5038716;28;20476;-52
2023/03/18 10:47:19;;;;;;;10.53;6.43;;;18.60;99.90;;;;;;5038578;28;20469;-54
2023/03/18 10:49:54;;;;;;;8.23;4.97;;;18.40;99.90;;;;;;5047152;28;20468;-53
2023/03/18 10:55:13;;;;;;;6.50;4.73;;;17.80;99.90;;;;;;5106574;27;20568;-53
2023/03/18 10:57:40;;;;;;;7.43;4.57;;;18.70;99.90;;;;;;5087647;28;20463;-53
2023/03/18 11:00:25;;;;;;;7.90;4.60;;;18.50;99.90;;;;;;5086449;28;20465;-53
2023/03/18 11:02:53;;;;;;;7.47;4.40;;;18.10;99.90;;;;;;5075770;28;20502;-53
2023/03/18 11:05:24;;;;;;;6.63;4.20;;;18.00;99.90;;;;;;5076397;28;20493;-53
2023/03/18 11:07:59;;;;;;;14.03;5.20;;;17.80;99.90;;;;;;5080064;28;20969;-53
2023/03/18 11:10:30;;;;;;;7.30;5.00;;;17.60;99.90;;;;;;5083489;28;20459;-53
2023/03/18 11:13:01;;;;;;;9.10;5.27;;;17.40;99.90;;;;;;5087850;28;20463;-53
2023/03/18 11:15:28;;;;;;;6.87;5.00;;;17.20;99.90;;;;;;5082840;28;20461;-52
2023/03/18 11:17:59;;;;;;;8.83;4.23;;;17.30;99.90;;;;;;5084988;28;20463;-54
2023/03/18 11:20:41;;;;;;;8.43;4.03;;;17.20;99.90;;;;;;5085859;28;20481;-53
2023/03/18 11:23:16;;;;;;;7.10;4.93;;;17.40;99.90;;;;;;5075213;28;20470;-53
2023/03/18 11:25:47;;;;;;;8.70;3.83;;;17.40;99.90;;;;;;5086614;28;20897;-55
2023/03/18 11:28:21;;;;;;;10.10;4.70;;;17.50;99.90;;;;;;5081854;28;20463;-53
2023/03/18 11:30:51;;;;;;;6.23;4.53;;;17.50;99.90;;;;;;5085390;28;20453;-52
2023/03/18 11:33:18;;;;;;;8.67;4.90;;;17.50;99.90;;;;;;5084424;28;20494;-52
2023/03/18 11:35:49;;;;;;;8.60;4.30;;;17.60;99.90;;;;;;5079115;28;20463;-53
2023/03/18 11:38:19;;;;;;;9.07;4.13;;;17.70;99.90;;;;;;5075138;28;20463;-53
2023/03/18 11:40:47;;;;;;;10.33;4.30;;;17.70;99.90;;;;;;5080914;28;20451;-53
2023/03/18 11:43:19;;;;;;;6.20;3.70;;;17.70;99.90;;;;;;5078553;28;20549;-52
2023/03/18 11:45:50;;;;;;;8.47;4.10;;;17.60;99.90;;;;;;5068230;28;20483;-52
2023/03/18 11:48:24;;;;;;;5.17;3.77;;;17.70;99.90;;;;;;5084437;28;20447;-56
2023/03/18 11:51:05;;;;;;;8.00;4.67;;;17.50;99.90;;;;;;5081186;28;20460;-56
2023/03/18 11:53:46;;;;;;;5.57;3.63;;;17.70;99.90;;;;;;5083863;28;20498;-57
2023/03/18 11:56:19;;;;;;;4.90;3.70;;;17.60;99.90;;;;;;5076828;28;20517;-53
2023/03/18 11:59:00;;;;;;;10.70;4.83;;;17.80;99.90;;;;;;5073031;28;20913;-52
2023/03/18 12:01:32;;;;;;;8.57;4.60;;;17.80;99.90;;;;;;5087451;28;20459;-53
2023/03/18 12:04:17;;;;;;;7.17;4.57;;;17.80;99.90;;;;;;5083205;28;20474;-53
2023/03/18 12:06:57;;;;;;;9.10;4.63;;;17.80;99.90;;;;;;5063704;28;20513;-52
2023/03/18 12:09:30;;;;;;;26.63;5.47;;;18.00;99.90;;;;;;5061510;28;20461;-54
2023/03/18 12:12:17;;;;;;;8.20;3.93;;;18.00;99.90;;;;;;5073112;28;20463;-57
2023/03/18 12:14:53;;;;;;;6.00;4.20;;;18.10;99.90;;;;;;5066641;28;20979;-56
2023/03/18 12:17:29;;;;;;;10.43;4.77;;;18.20;99.90;;;;;;5066537;28;20493;-56
2023/03/18 12:20:28;;;;;;;8.00;4.57;;;18.10;99.90;;;;;;5066917;28;20460;-55
2023/03/18 12:23:03;;;;;;;7.87;4.37;;;18.20;99.90;;;;;;5068063;28;20549;-56
2023/03/18 12:25:59;;;;;;;8.37;4.73;;;18.80;99.90;;;;;;5073064;28;20451;-57
2023/03/18 12:28:40;;;;;;;7.10;4.50;;;18.90;99.90;;;;;;5054132;28;20950;-56
2023/03/18 12:31:27;;;;;;;8.03;4.43;;;18.80;99.90;;;;;;5070553;28;20459;-52
2023/03/18 12:33:56;;;;;;;7.10;5.00;;;18.90;99.90;;;;;;5060888;28;20583;-51
2023/03/18 12:36:34;;;;;;;6.00;4.10;;;19.20;99.90;;;;;;5072385;28;20451;-52
2023/03/18 12:39:27;;;;;;;6.63;3.83;;;19.20;99.90;;;;;;5062847;28;20454;-52
2023/03/18 12:42:01;;;;;;;7.60;3.80;;;18.90;99.90;;;;;;5060943;28;20954;-52
2023/03/18 12:44:47;;;;;;;10.20;4.07;;;19.10;99.90;;;;;;5070668;28;20483;-51
2023/03/18 12:47:18;;;;;;;8.43;5.13;;;19.60;99.90;;;;;;5068090;28;20494;-51
2023/03/18 12:49:50;;;;;;;13.27;7.77;;;19.50;99.90;;;;;;5068974;28;20516;-50
2023/03/18 12:52:26;;;;;;;42.13;19.87;;;19.30;99.90;;;;;;5069473;28;20498;-51
2023/03/18 12:55:00;;;;;;;19.37;10.50;;;19.00;99.90;;;;;;5062036;28;20493;-50
2023/03/18 12:57:36;;;;;;;8.17;4.47;;;18.70;99.90;;;;;;5070102;28;20546;-50
2023/03/18 13:00:14;;;;;;;5.43;3.70;;;19.30;99.90;;;;;;5065663;28;20496;-51
2023/03/18 13:02:48;;;;;;;11.37;4.83;;;19.20;99.90;;;;;;5061087;28;20473;-50